Time;durP1;ratioP1;P1;durP2;ratioP2;P2;SDS_P1;SDS_P2;PMS_P1;PMS_P2;Temp;Humidity;BMP_temperature;BMP_pressure;BME280_temperature;BME280_humidity;BME280_pressure;Samples;Min_cycle;Max_cycle;Signal;HPM_P1;HPM_P2
2021/06/14 00:00:25;;;;;;;7.03;5.53;;;;;;;;;;5022062;28;20589;-76
2021/06/14 00:02:52;;;;;;;7.33;5.37;;;;;;;;;;5022958;28;20581;-76
2021/06/14 00:05:23;;;;;;;6.50;5.90;;;;;;;;;;5022925;28;20538;-76
2021/06/14 00:07:51;;;;;;;6.27;5.67;;;;;;;;;;5021818;28;20496;-76
2021/06/14 00:10:19;;;;;;;5.43;4.93;;;;;;;;;;5024971;28;20456;-76
2021/06/14 00:12:46;;;;;;;6.73;5.93;;;;;;;;;;5022798;28;21035;-74
2021/06/14 00:15:14;;;;;;;6.77;5.20;;;;;;;;;;5027419;28;20497;-75
2021/06/14 00:17:41;;;;;;;5.57;5.07;;;;;;;;;;5022421;28;20564;-75
2021/06/14 00:20:09;;;;;;;6.17;5.57;;;;;;;;;;5024014;28;20552;-76
2021/06/14 00:22:36;;;;;;;9.37;5.03;;;;;;;;;;5024916;28;20552;-76
2021/06/14 00:25:05;;;;;;;7.10;5.40;;;;;;;;;;5029835;28;20481;-77
2021/06/14 00:27:32;;;;;;;6.90;5.77;;;;;;;;;;5019425;28;20467;-77
2021/06/14 00:29:59;;;;;;;7.60;5.50;;;;;;;;;;5023428;28;20442;-76
2021/06/14 00:32:26;;;;;;;5.83;5.33;;;;;;;;;;5024475;28;20526;-77
2021/06/14 00:34:54;;;;;;;6.90;6.10;;;;;;;;;;5023312;28;20507;-77
2021/06/14 00:37:21;;;;;;;7.47;4.73;;;;;;;;;;5029030;28;20485;-77
2021/06/14 00:39:48;;;;;;;6.77;5.30;;;;;;;;;;5022055;28;20501;-77
2021/06/14 00:42:16;;;;;;;6.33;5.50;;;;;;;;;;5025684;28;20969;-78
2021/06/14 00:44:43;;;;;;;9.40;5.90;;;;;;;;;;5026373;28;21042;-76
2021/06/14 00:47:11;;;;;;;6.53;5.50;;;;;;;;;;5029720;28;20445;-77
2021/06/14 00:49:38;;;;;;;7.70;5.50;;;;;;;;;;5025380;28;21248;-76
2021/06/14 00:52:05;;;;;;;6.47;5.90;;;;;;;;;;5025065;28;21015;-76
2021/06/14 00:54:33;;;;;;;7.67;6.20;;;;;;;;;;5025222;28;20519;-77
2021/06/14 00:57:00;;;;;;;7.53;4.90;;;;;;;;;;5020947;28;20783;-76
2021/06/14 00:59:29;;;;;;;8.47;6.43;;;;;;;;;;5020718;28;20497;-76
2021/06/14 01:01:56;;;;;;;6.93;5.20;;;;;;;;;;5023498;28;20453;-77
2021/06/14 01:04:23;;;;;;;5.93;5.33;;;;;;;;;;5018048;28;20556;-76
2021/06/14 01:06:50;;;;;;;8.13;5.50;;;;;;;;;;5022965;28;20450;-76
2021/06/14 01:09:18;;;;;;;6.17;5.50;;;;;;;;;;5021156;28;20977;-76
2021/06/14 01:11:49;;;;;;;7.03;5.60;;;;;;;;;;5024217;28;20564;-76
2021/06/14 01:14:19;;;;;;;7.27;6.20;;;;;;;;;;5024169;28;20449;-76
2021/06/14 01:16:54;;;;;;;5.50;5.03;;;;;;;;;;5023844;28;20482;-76
2021/06/14 01:19:42;;;;;;;7.13;5.87;;;;;;;;;;5021583;28;20460;-76
2021/06/14 01:22:16;;;;;;;8.87;5.53;;;;;;;;;;4998335;28;20511;-76
2021/06/14 01:24:49;;;;;;;5.33;4.93;;;;;;;;;;5028609;28;20474;-76
2021/06/14 01:27:35;;;;;;;6.50;5.87;;;;;;;;;;5024610;28;21310;-76
2021/06/14 01:30:02;;;;;;;6.23;5.60;;;;;;;;;;5019904;28;20485;-76
2021/06/14 01:32:30;;;;;;;7.20;5.87;;;;;;;;;;5021751;28;20446;-77
2021/06/14 01:34:57;;;;;;;8.83;6.70;;;;;;;;;;5021703;28;20491;-76
2021/06/14 01:37:24;;;;;;;6.80;5.60;;;;;;;;;;5025294;28;20557;-77
2021/06/14 01:39:52;;;;;;;6.73;5.53;;;;;;;;;;5024355;28;20459;-76
2021/06/14 01:42:19;;;;;;;6.40;5.80;;;;;;;;;;5020605;28;20490;-76
2021/06/14 01:44:50;;;;;;;6.70;6.07;;;;;;;;;;5027695;28;20473;-76
2021/06/14 01:47:18;;;;;;;6.63;5.40;;;;;;;;;;5022842;28;20462;-76
2021/06/14 01:49:45;;;;;;;7.57;5.50;;;;;;;;;;5026983;28;20458;-76
2021/06/14 01:52:13;;;;;;;7.23;5.73;;;;;;;;;;5025019;28;20525;-76
2021/06/14 01:54:41;;;;;;;7.53;5.83;;;;;;;;;;5026641;28;20917;-75
2021/06/14 01:57:09;;;;;;;6.53;5.93;;;;;;;;;;5022840;28;20893;-75
2021/06/14 01:59:38;;;;;;;6.57;5.90;;;;;;;;;;5025448;28;20520;-75
2021/06/14 02:02:07;;;;;;;6.80;5.90;;;;;;;;;;5021558;28;20543;-76
2021/06/14 02:04:35;;;;;;;8.60;6.33;;;;;;;;;;5020677;28;20557;-76
2021/06/14 02:07:03;;;;;;;6.37;5.87;;;;;;;;;;5021345;28;20765;-75
2021/06/14 02:09:31;;;;;;;9.80;6.57;;;;;;;;;;5024428;28;20457;-76
2021/06/14 02:11:59;;;;;;;7.47;6.77;;;;;;;;;;5025574;28;20456;-75
2021/06/14 02:14:27;;;;;;;7.50;6.63;;;;;;;;;;5025717;28;20479;-75
2021/06/14 02:16:55;;;;;;;6.90;6.27;;;;;;;;;;5023249;28;21091;-75
2021/06/14 02:19:24;;;;;;;10.17;7.40;;;;;;;;;;5028246;28;20464;-75
2021/06/14 02:21:51;;;;;;;11.33;6.27;;;;;;;;;;5026250;28;20450;-75
2021/06/14 02:24:18;;;;;;;7.27;6.53;;;;;;;;;;5024868;28;20500;-76
2021/06/14 02:26:46;;;;;;;9.37;7.27;;;;;;;;;;5019923;28;20458;-74
2021/06/14 02:29:14;;;;;;;7.37;6.67;;;;;;;;;;5022212;28;21092;-75
2021/06/14 02:31:41;;;;;;;6.97;6.27;;;;;;;;;;5025621;28;20465;-76
2021/06/14 02:34:09;;;;;;;7.33;6.30;;;;;;;;;;5021046;28;20468;-76
2021/06/14 02:36:39;;;;;;;7.77;7.07;;;;;;;;;;5023132;28;20460;-76
2021/06/14 02:39:07;;;;;;;7.07;6.37;;;;;;;;;;5023407;28;20500;-75
2021/06/14 02:41:35;;;;;;;7.63;6.80;;;;;;;;;;5023415;28;20453;-76
2021/06/14 02:44:05;;;;;;;9.43;6.83;;;;;;;;;;5023836;28;20493;-75
2021/06/14 02:46:33;;;;;;;8.70;7.50;;;;;;;;;;5020852;28;20972;-76
2021/06/14 02:49:00;;;;;;;8.03;7.20;;;;;;;;;;5023918;28;20553;-75
2021/06/14 02:51:27;;;;;;;12.90;7.50;;;;;;;;;;5025389;28;20454;-75
2021/06/14 02:56:41;;;;;;;10.60;6.90;;;;;;;;;;5026183;28;20451;-75
2021/06/14 02:59:10;;;;;;;9.37;6.70;;;;;;;;;;5021517;28;20456;-75
2021/06/14 03:01:37;;;;;;;7.40;6.70;;;;;;;;;;5022496;28;20466;-76
2021/06/14 03:04:05;;;;;;;8.40;7.50;;;;;;;;;;5019291;28;20911;-75
2021/06/14 03:06:33;;;;;;;8.03;7.23;;;;;;;;;;5027127;28;20513;-75
2021/06/14 03:09:03;;;;;;;7.67;6.87;;;;;;;;;;5023612;28;20565;-76
2021/06/14 03:11:30;;;;;;;10.27;8.07;;;;;;;;;;5026231;28;20465;-75
2021/06/14 03:13:58;;;;;;;9.97;7.77;;;;;;;;;;5025127;28;20461;-76
2021/06/14 03:16:27;;;;;;;7.13;6.43;;;;;;;;;;5026924;28;20577;-76
2021/06/14 03:18:54;;;;;;;8.07;7.00;;;;;;;;;;5023100;28;20528;-76
2021/06/14 03:21:22;;;;;;;9.97;7.50;;;;;;;;;;5024863;28;20538;-76
2021/06/14 03:23:50;;;;;;;8.87;7.10;;;;;;;;;;5021885;28;20482;-77
2021/06/14 03:26:19;;;;;;;8.50;7.67;;;;;;;;;;5021589;28;20507;-76
2021/06/14 03:28:47;;;;;;;8.70;7.50;;;;;;;;;;5022818;28;20555;-76
2021/06/14 03:31:15;;;;;;;11.13;7.93;;;;;;;;;;5023323;28;20545;-75
2021/06/14 03:33:43;;;;;;;8.80;7.80;;;;;;;;;;5026292;28;20441;-75
2021/06/14 03:36:12;;;;;;;8.47;7.40;;;;;;;;;;5019282;28;20532;-76
2021/06/14 03:38:40;;;;;;;9.40;7.53;;;;;;;;;;5019523;28;20537;-76
2021/06/14 03:41:08;;;;;;;11.40;7.63;;;;;;;;;;5021441;28;20457;-76
2021/06/14 03:43:36;;;;;;;10.33;7.63;;;;;;;;;;5022600;28;20545;-76
2021/06/14 03:46:04;;;;;;;7.90;7.13;;;;;;;;;;5021910;28;20469;-75
2021/06/14 03:48:31;;;;;;;11.03;7.50;;;;;;;;;;5023534;28;20519;-77
2021/06/14 03:50:58;;;;;;;10.33;8.17;;;;;;;;;;5027732;28;20989;-76
2021/06/14 03:53:30;;;;;;;11.70;6.97;;;;;;;;;;5025391;28;20973;-76
2021/06/14 03:55:57;;;;;;;7.80;7.00;;;;;;;;;;5022007;28;20554;-76
2021/06/14 03:58:25;;;;;;;10.13;7.60;;;;;;;;;;5026277;28;20483;-75
2021/06/14 04:00:53;;;;;;;10.20;7.50;;;;;;;;;;5019555;28;20993;-75
2021/06/14 04:03:23;;;;;;;9.70;7.13;;;;;;;;;;5026454;28;20530;-75
2021/06/14 04:05:50;;;;;;;8.90;6.80;;;;;;;;;;5027403;28;21377;-75
2021/06/14 04:08:17;;;;;;;8.13;7.17;;;;;;;;;;5023173;28;20498;-76
2021/06/14 04:10:44;;;;;;;7.10;6.40;;;;;;;;;;5024911;28;20548;-75
2021/06/14 04:13:12;;;;;;;9.33;6.23;;;;;;;;;;5018763;28;20500;-77
2021/06/14 04:15:39;;;;;;;9.43;5.70;;;;;;;;;;5024803;28;20459;-76
2021/06/14 04:18:07;;;;;;;8.87;5.67;;;;;;;;;;5024269;28;20494;-76
2021/06/14 04:20:35;;;;;;;7.90;6.07;;;;;;;;;;5022030;28;20540;-76
2021/06/14 04:23:02;;;;;;;9.43;5.50;;;;;;;;;;5019269;28;20939;-77
2021/06/14 04:25:29;;;;;;;7.63;6.20;;;;;;;;;;5024163;28;21005;-76
2021/06/14 04:27:56;;;;;;;6.00;5.23;;;;;;;;;;5023094;28;20537;-76
2021/06/14 04:30:23;;;;;;;7.07;5.20;;;;;;;;;;5033911;28;20449;-76
2021/06/14 04:32:51;;;;;;;7.03;5.33;;;;;;;;;;5028950;28;20484;-76
2021/06/14 04:35:19;;;;;;;6.70;6.00;;;;;;;;;;5026023;28;21125;-75
2021/06/14 04:37:47;;;;;;;7.23;5.20;;;;;;;;;;5025843;28;20559;-77
2021/06/14 04:40:14;;;;;;;7.90;4.70;;;;;;;;;;5025684;28;20507;-77
2021/06/14 04:42:41;;;;;;;7.83;5.70;;;;;;;;;;5018814;28;20464;-77
2021/06/14 04:45:09;;;;;;;6.00;5.43;;;;;;;;;;5020271;28;20976;-76
2021/06/14 04:47:36;;;;;;;8.93;5.30;;;;;;;;;;5019685;28;20484;-79
2021/06/14 04:50:03;;;;;;;6.40;4.67;;;;;;;;;;5019130;28;21003;-76
2021/06/14 04:52:32;;;;;;;7.30;4.70;;;;;;;;;;5018301;28;20934;-77
2021/06/14 04:54:59;;;;;;;5.67;5.07;;;;;;;;;;5015064;28;20466;-76
2021/06/14 04:57:26;;;;;;;6.20;5.20;;;;;;;;;;5018435;28;20537;-78
2021/06/14 04:59:53;;;;;;;5.83;4.70;;;;;;;;;;5017458;28;20461;-77
2021/06/14 05:02:20;;;;;;;6.67;5.10;;;;;;;;;;5019587;28;20460;-76
2021/06/14 05:04:48;;;;;;;6.70;5.10;;;;;;;;;;5016316;28;20566;-76
2021/06/14 05:07:15;;;;;;;6.73;4.23;;;;;;;;;;5021199;28;21113;-76
2021/06/14 05:09:44;;;;;;;5.60;4.70;;;;;;;;;;5015342;28;20537;-76
2021/06/14 05:12:11;;;;;;;6.30;4.60;;;;;;;;;;5018385;28;21012;-78
2021/06/14 05:14:39;;;;;;;4.40;4.00;;;;;;;;;;5016767;28;20600;-76
2021/06/14 05:17:06;;;;;;;6.57;4.60;;;;;;;;;;5017570;28;20685;-77
2021/06/14 05:19:33;;;;;;;4.97;4.33;;;;;;;;;;5016422;28;20497;-77
2021/06/14 05:22:04;;;;;;;6.30;4.70;;;;;;;;;;5017837;28;20446;-76
2021/06/14 05:24:31;;;;;;;7.93;4.90;;;;;;;;;;5020531;28;20471;-76
2021/06/14 05:27:00;;;;;;;7.90;4.30;;;;;;;;;;5023027;28;20455;-76
2021/06/14 05:29:27;;;;;;;4.70;3.90;;;;;;;;;;5016997;28;20573;-76
2021/06/14 05:31:54;;;;;;;4.67;4.10;;;;;;;;;;5019822;28;20482;-76
2021/06/14 05:34:21;;;;;;;7.50;5.03;;;;;;;;;;5021121;28;20451;-76
2021/06/14 05:36:49;;;;;;;5.67;4.73;;;;;;;;;;5027344;28;20837;-76
2021/06/14 05:39:16;;;;;;;4.27;3.67;;;;;;;;;;5026594;28;20983;-79
2021/06/14 05:41:43;;;;;;;6.90;4.37;;;;;;;;;;5025419;28;20668;-77
2021/06/14 05:44:12;;;;;;;6.70;4.33;;;;;;;;;;5025801;28;20523;-76
2021/06/14 05:46:39;;;;;;;4.70;4.30;;;;;;;;;;5025041;28;20447;-76
2021/06/14 05:49:06;;;;;;;8.37;4.63;;;;;;;;;;5029418;28;20456;-77
2021/06/14 05:51:33;;;;;;;6.47;4.53;;;;;;;;;;5020269;28;20452;-77
2021/06/14 05:54:01;;;;;;;6.33;4.50;;;;;;;;;;5029476;28;20453;-76
2021/06/14 05:56:28;;;;;;;5.53;4.20;;;;;;;;;;5024798;28;20461;-76
2021/06/14 05:58:55;;;;;;;4.50;4.00;;;;;;;;;;5028854;28;20456;-78
2021/06/14 06:01:24;;;;;;;5.90;4.17;;;;;;;;;;5026129;28;20937;-79
2021/06/14 06:03:51;;;;;;;6.57;4.50;;;;;;;;;;5025985;28;20477;-79
2021/06/14 06:06:18;;;;;;;6.17;4.20;;;;;;;;;;5026840;28;20476;-78
2021/06/14 06:08:46;;;;;;;6.17;4.10;;;;;;;;;;5028508;28;20644;-78
2021/06/14 06:11:13;;;;;;;4.50;3.70;;;;;;;;;;5031619;28;21782;-82
2021/06/14 06:13:40;;;;;;;5.20;4.00;;;;;;;;;;5035823;28;20458;-81
2021/06/14 06:16:09;;;;;;;8.13;4.70;;;;;;;;;;5037457;28;20482;-82
2021/06/14 06:18:38;;;;;;;5.57;3.83;;;;;;;;;;5039260;28;20552;-82
2021/06/14 06:21:05;;;;;;;4.40;3.63;;;;;;;;;;5039599;28;20495;-81
2021/06/14 06:23:33;;;;;;;7.03;3.47;;;;;;;;;;5034245;28;20463;-81
2021/06/14 06:26:00;;;;;;;4.57;4.17;;;;;;;;;;5035992;28;20545;-81
2021/06/14 06:28:28;;;;;;;5.07;3.70;;;;;;;;;;5041854;28;20466;-84
2021/06/14 06:30:58;;;;;;;5.40;3.90;;;;;;;;;;5046732;28;20448;-85
2021/06/14 06:33:25;;;;;;;5.53;3.43;;;;;;;;;;5049800;28;20529;-85
2021/06/14 06:36:03;;;;;;;6.97;3.87;;;;;;;;;;5049437;28;20506;-85
2021/06/14 06:38:30;;;;;;;4.80;4.30;;;;;;;;;;5038492;28;20540;-82
2021/06/14 06:40:59;;;;;;;6.50;3.83;;;;;;;;;;5037672;28;20468;-83
2021/06/14 06:43:29;;;;;;;8.40;3.57;;;;;;;;;;5040812;28;20457;-84
2021/06/14 06:45:57;;;;;;;5.80;4.10;;;;;;;;;;5039243;28;20564;-83
2021/06/14 06:48:33;;;;;;;4.53;3.40;;;;;;;;;;5039775;28;20515;-85
2021/06/14 06:54:21;;;;;;;4.70;3.70;;;;;;;;;;5039987;28;20460;-84
2021/06/14 06:59:38;;;;;;;5.73;3.63;;;;;;;;;;5043024;28;20478;-79
2021/06/14 07:02:05;;;;;;;4.93;3.50;;;;;;;;;;5036770;28;20469;-78
2021/06/14 07:04:32;;;;;;;5.50;3.90;;;;;;;;;;5041262;28;20458;-77
2021/06/14 07:07:01;;;;;;;5.87;3.90;;;;;;;;;;5031677;28;20472;-78
2021/06/14 07:09:28;;;;;;;6.10;3.80;;;;;;;;;;5021734;28;20461;-81
2021/06/14 07:11:56;;;;;;;11.73;4.10;;;;;;;;;;5027920;28;20499;-78
2021/06/14 07:14:24;;;;;;;8.23;3.73;;;;;;;;;;5024656;28;20484;-81
2021/06/14 07:16:51;;;;;;;5.43;3.60;;;;;;;;;;5034691;28;20495;-79
2021/06/14 07:19:19;;;;;;;4.10;3.43;;;;;;;;;;5027585;28;20536;-76
2021/06/14 07:21:46;;;;;;;7.27;3.70;;;;;;;;;;5029184;28;20462;-81
2021/06/14 07:24:15;;;;;;;6.70;3.87;;;;;;;;;;5032798;28;20818;-80
2021/06/14 07:26:42;;;;;;;7.00;3.80;;;;;;;;;;5034198;28;20480;-79
2021/06/14 07:29:09;;;;;;;4.90;4.00;;;;;;;;;;5029706;28;20984;-79
2021/06/14 07:31:36;;;;;;;5.83;4.00;;;;;;;;;;5033186;28;20979;-78
2021/06/14 07:34:05;;;;;;;5.70;3.20;;;;;;;;;;5033263;28;20488;-78
2021/06/14 07:36:33;;;;;;;8.60;3.93;;;;;;;;;;5025753;28;20455;-78
2021/06/14 07:39:00;;;;;;;5.33;4.23;;;;;;;;;;5031427;28;20453;-78
2021/06/14 07:41:29;;;;;;;7.40;4.10;;;;;;;;;;5028474;28;20884;-78
2021/06/14 07:43:56;;;;;;;5.37;2.80;;;;;;;;;;5027130;28;20448;-78
2021/06/14 07:46:23;;;;;;;3.80;3.30;;;;;;;;;;5023649;28;20586;-77
2021/06/14 07:48:50;;;;;;;5.90;3.40;;;;;;;;;;5028611;28;20442;-76
2021/06/14 07:51:18;;;;;;;5.70;3.90;;;;;;;;;;5023632;28;20529;-78
2021/06/14 07:53:49;;;;;;;4.30;3.10;;;;;;;;;;5021356;28;20457;-76
2021/06/14 07:56:16;;;;;;;5.87;3.87;;;;;;;;;;5024335;28;20492;-77
2021/06/14 07:58:45;;;;;;;4.17;3.73;;;;;;;;;;5021289;28;20459;-78
2021/06/14 08:01:12;;;;;;;7.17;3.00;;;;;;;;;;5019525;28;21097;-77
2021/06/14 08:03:40;;;;;;;4.60;3.43;;;;;;;;;;5022718;28;21045;-77
2021/06/14 08:06:07;;;;;;;4.67;2.90;;;;;;;;;;5025134;28;20977;-76
2021/06/14 08:08:36;;;;;;;6.73;3.50;;;;;;;;;;5027776;28;20461;-78
2021/06/14 08:11:03;;;;;;;5.07;3.27;;;;;;;;;;5021298;28;20489;-77
2021/06/14 08:13:31;;;;;;;5.77;3.40;;;;;;;;;;5033478;28;20984;-78
2021/06/14 08:15:59;;;;;;;6.80;3.17;;;;;;;;;;5022423;28;20480;-78
2021/06/14 08:18:35;;;;;;;4.07;2.83;;;;;;;;;;5032572;28;20457;-78
2021/06/14 08:21:11;;;;;;;6.43;3.30;;;;;;;;;;5026360;28;20564;-78
2021/06/14 08:26:24;;;;;;;7.77;3.63;;;;;;;;;;5026994;28;20468;-76
2021/06/14 08:28:51;;;;;;;5.70;3.50;;;;;;;;;;5027892;28;20467;-77
2021/06/14 08:31:20;;;;;;;5.87;3.30;;;;;;;;;;5025713;28;20462;-77
2021/06/14 08:33:47;;;;;;;3.63;3.33;;;;;;;;;;5027447;28;20450;-77
2021/06/14 08:36:15;;;;;;;4.23;3.83;;;;;;;;;;5025579;28;21389;-77
2021/06/14 08:38:42;;;;;;;5.20;3.00;;;;;;;;;;5024312;28;20456;-77
2021/06/14 08:41:10;;;;;;;5.53;3.60;;;;;;;;;;5028366;28;20515;-76
2021/06/14 08:43:37;;;;;;;4.23;2.77;;;;;;;;;;5022094;28;21117;-78
2021/06/14 08:46:04;;;;;;;4.03;3.27;;;;;;;;;;5021252;28;20467;-77
2021/06/14 08:48:33;;;;;;;5.23;3.37;;;;;;;;;;5020631;28;20518;-76
2021/06/14 08:51:00;;;;;;;5.40;3.30;;;;;;;;;;5026492;28;20457;-76
2021/06/14 08:53:28;;;;;;;4.80;3.20;;;;;;;;;;5019452;28;20486;-77
2021/06/14 08:55:55;;;;;;;4.40;2.77;;;;;;;;;;5028563;28;20453;-78
2021/06/14 08:58:22;;;;;;;6.33;3.37;;;;;;;;;;5026342;28;20471;-77
2021/06/14 09:00:49;;;;;;;6.60;3.37;;;;;;;;;;5027643;28;20447;-76
2021/06/14 09:03:18;;;;;;;3.87;3.00;;;;;;;;;;5025854;28;20501;-76
2021/06/14 09:05:47;;;;;;;4.20;3.37;;;;;;;;;;5028024;28;20471;-76
2021/06/14 09:08:14;;;;;;;4.57;3.17;;;;;;;;;;5026017;28;20479;-78
2021/06/14 09:10:42;;;;;;;3.70;2.70;;;;;;;;;;5028834;28;20447;-76
2021/06/14 09:13:10;;;;;;;3.93;3.13;;;;;;;;;;5024392;28;20454;-77
2021/06/14 09:15:38;;;;;;;6.27;3.57;;;;;;;;;;5034073;28;20519;-76
2021/06/14 09:18:15;;;;;;;4.57;3.40;;;;;;;;;;5030017;28;20572;-78
2021/06/14 09:20:53;;;;;;;4.20;2.90;;;;;;;;;;5026104;28;20469;-78
2021/06/14 09:23:22;;;;;;;6.37;3.97;;;;;;;;;;5026153;28;20549;-77
2021/06/14 09:25:50;;;;;;;4.17;3.47;;;;;;;;;;5031814;28;20469;-78
2021/06/14 09:28:17;;;;;;;2.90;2.60;;;;;;;;;;5028619;28;20855;-78
2021/06/14 09:30:44;;;;;;;4.40;3.23;;;;;;;;;;5027964;28;20556;-79
2021/06/14 09:33:22;;;;;;;6.00;3.67;;;;;;;;;;5028246;28;20893;-77
2021/06/14 09:35:49;;;;;;;5.97;3.50;;;;;;;;;;5028661;28;20455;-78
2021/06/14 09:38:17;;;;;;;5.70;3.40;;;;;;;;;;5032926;28;20446;-79
2021/06/14 09:40:46;;;;;;;6.10;3.17;;;;;;;;;;5035702;28;20448;-78
2021/06/14 09:43:22;;;;;;;5.70;3.83;;;;;;;;;;5027281;28;20469;-78
2021/06/14 09:45:49;;;;;;;4.13;3.37;;;;;;;;;;5029968;28;20464;-79
2021/06/14 09:48:17;;;;;;;4.50;3.43;;;;;;;;;;5032447;28;20455;-79
2021/06/14 09:50:45;;;;;;;3.60;2.97;;;;;;;;;;5023455;28;20601;-78
2021/06/14 09:53:13;;;;;;;6.07;3.07;;;;;;;;;;5033574;28;20507;-77
2021/06/14 09:55:41;;;;;;;3.87;3.50;;;;;;;;;;5029245;28;20446;-76
2021/06/14 09:58:14;;;;;;;3.03;2.73;;;;;;;;;;5026830;28;20458;-76
2021/06/14 10:00:48;;;;;;;3.30;2.73;;;;;;;;;;5022498;28;20464;-74
2021/06/14 10:03:15;;;;;;;3.07;2.70;;;;;;;;;;5031889;28;20445;-75
2021/06/14 10:05:46;;;;;;;7.93;3.57;;;;;;;;;;5036324;28;20556;-76
2021/06/14 10:08:14;;;;;;;5.60;3.30;;;;;;;;;;5044475;28;20442;-77
2021/06/14 10:10:41;;;;;;;3.77;2.80;;;;;;;;;;5038170;28;20484;-74
2021/06/14 10:13:08;;;;;;;6.93;2.97;;;;;;;;;;5033568;28;20474;-74
2021/06/14 10:15:38;;;;;;;2.90;2.60;;;;;;;;;;5028506;28;20457;-75
2021/06/14 10:18:08;;;;;;;4.87;3.50;;;;;;;;;;5024964;28;20902;-76
2021/06/14 10:20:36;;;;;;;4.40;3.10;;;;;;;;;;5027217;28;20446;-74
2021/06/14 10:23:04;;;;;;;4.27;2.93;;;;;;;;;;5032463;28;20534;-76
2021/06/14 10:25:31;;;;;;;5.50;2.50;;;;;;;;;;5026548;28;20540;-74
2021/06/14 10:27:59;;;;;;;3.20;2.90;;;;;;;;;;5025984;28;20597;-75
2021/06/14 10:30:27;;;;;;;6.17;3.13;;;;;;;;;;5020226;28;20814;-76
2021/06/14 10:32:56;;;;;;;3.63;2.97;;;;;;;;;;5033108;28;20510;-76
2021/06/14 10:35:23;;;;;;;3.17;2.70;;;;;;;;;;5028618;28;20481;-75
2021/06/14 10:37:53;;;;;;;3.30;2.43;;;;;;;;;;5032266;28;20557;-74
2021/06/14 10:40:21;;;;;;;2.80;2.60;;;;;;;;;;5024432;28;20538;-74
2021/06/14 10:42:49;;;;;;;4.60;3.00;;;;;;;;;;5029251;28;21006;-75
2021/06/14 10:45:19;;;;;;;3.67;2.70;;;;;;;;;;5028161;28;20478;-75
2021/06/14 10:47:47;;;;;;;8.83;3.17;;;;;;;;;;5026960;28;20852;-76
2021/06/14 10:50:16;;;;;;;4.27;2.90;;;;;;;;;;5027079;28;20450;-76
2021/06/14 10:52:44;;;;;;;5.23;3.07;;;;;;;;;;5031801;28;20599;-76
2021/06/14 10:55:12;;;;;;;3.93;2.80;;;;;;;;;;5037976;28;20454;-74
2021/06/14 10:57:40;;;;;;;10.30;3.33;;;;;;;;;;5030154;28;20469;-73
2021/06/14 11:00:20;;;;;;;4.30;2.63;;;;;;;;;;5035632;28;20451;-76
2021/06/14 11:02:51;;;;;;;10.63;3.10;;;;;;;;;;5038913;28;20450;-76
2021/06/14 11:05:28;;;;;;;3.27;2.97;;;;;;;;;;5035123;28;20466;-75
2021/06/14 11:07:55;;;;;;;7.97;3.17;;;;;;;;;;5027668;28;20473;-74
2021/06/14 11:10:24;;;;;;;3.23;2.40;;;;;;;;;;5032346;28;20486;-74
2021/06/14 11:12:52;;;;;;;3.70;2.40;;;;;;;;;;5024702;28;24403;-75
2021/06/14 11:15:22;;;;;;;3.53;2.90;;;;;;;;;;5035911;28;20482;-76
2021/06/14 11:17:49;;;;;;;3.30;2.90;;;;;;;;;;5031770;28;20455;-75
2021/06/14 11:20:17;;;;;;;4.47;3.03;;;;;;;;;;5030933;28;20505;-75
2021/06/14 11:22:47;;;;;;;3.23;2.80;;;;;;;;;;5033339;28;20461;-76
2021/06/14 11:25:27;;;;;;;4.37;3.67;;;;;;;;;;5032899;28;20447;-74
2021/06/14 11:27:54;;;;;;;7.30;3.37;;;;;;;;;;5025435;28;20463;-74
2021/06/14 11:30:24;;;;;;;3.97;3.20;;;;;;;;;;5031472;28;20463;-75
2021/06/14 11:32:51;;;;;;;4.73;3.00;;;;;;;;;;5034745;28;20965;-76
2021/06/14 11:35:19;;;;;;;6.27;3.30;;;;;;;;;;5031092;28;20452;-75
2021/06/14 11:37:48;;;;;;;3.80;2.80;;;;;;;;;;5032296;28;20501;-75
2021/06/14 11:40:17;;;;;;;7.20;3.27;;;;;;;;;;5029850;28;20462;-75
2021/06/14 11:42:49;;;;;;;4.73;3.03;;;;;;;;;;5034223;28;20461;-75
2021/06/14 11:45:24;;;;;;;4.03;2.83;;;;;;;;;;5029747;28;20469;-76
2021/06/14 11:47:51;;;;;;;4.43;2.90;;;;;;;;;;5029559;28;20479;-76
2021/06/14 11:50:22;;;;;;;5.50;2.67;;;;;;;;;;5027068;28;20966;-75
2021/06/14 11:52:58;;;;;;;2.70;2.13;;;;;;;;;;5034641;28;20486;-74
2021/06/14 11:55:27;;;;;;;2.60;2.40;;;;;;;;;;5027250;28;20527;-75
2021/06/14 11:57:56;;;;;;;2.57;2.37;;;;;;;;;;5032309;28;20451;-74
2021/06/14 12:00:27;;;;;;;2.70;2.50;;;;;;;;;;5029417;28;20559;-75
2021/06/14 12:02:54;;;;;;;4.57;2.30;;;;;;;;;;5030743;28;20466;-76
2021/06/14 12:05:30;;;;;;;5.40;3.10;;;;;;;;;;5025579;28;20463;-74
2021/06/14 12:07:58;;;;;;;3.47;2.90;;;;;;;;;;5028013;28;21036;-75
2021/06/14 12:10:26;;;;;;;3.50;2.50;;;;;;;;;;5028639;28;20444;-76
2021/06/14 12:13:03;;;;;;;3.93;2.10;;;;;;;;;;5029763;28;20458;-76
2021/06/14 12:15:30;;;;;;;3.23;2.47;;;;;;;;;;5026332;28;20459;-76
2021/06/14 12:17:58;;;;;;;7.83;2.70;;;;;;;;;;5028777;28;20468;-75
2021/06/14 12:20:27;;;;;;;4.80;2.80;;;;;;;;;;5029877;28;21065;-75
2021/06/14 12:23:02;;;;;;;3.90;2.67;;;;;;;;;;5030419;28;20541;-75
2021/06/14 12:25:30;;;;;;;3.27;2.53;;;;;;;;;;5028029;28;20743;-74
2021/06/14 12:28:05;;;;;;;4.90;2.70;;;;;;;;;;5033501;28;20877;-76
2021/06/14 12:30:32;;;;;;;3.37;2.70;;;;;;;;;;5032455;28;20533;-74
2021/06/14 12:32:59;;;;;;;3.40;2.57;;;;;;;;;;5029697;28;20448;-77
2021/06/14 12:35:27;;;;;;;5.10;3.00;;;;;;;;;;5042058;28;20464;-75
2021/06/14 12:37:55;;;;;;;2.40;2.20;;;;;;;;;;5036641;28;20472;-78
2021/06/14 12:40:24;;;;;;;2.70;2.50;;;;;;;;;;5038864;28;20867;-77
2021/06/14 12:42:55;;;;;;;4.03;2.77;;;;;;;;;;5037021;28;20496;-76
2021/06/14 12:45:22;;;;;;;3.60;2.60;;;;;;;;;;5035180;28;20465;-75
2021/06/14 12:47:50;;;;;;;2.93;2.53;;;;;;;;;;5034099;28;20526;-75
2021/06/14 12:50:18;;;;;;;2.30;2.10;;;;;;;;;;5036647;28;20467;-76
2021/06/14 12:52:45;;;;;;;2.80;2.40;;;;;;;;;;5034560;28;20968;-74
2021/06/14 12:55:20;;;;;;;4.47;2.07;;;;;;;;;;5033029;28;20460;-75
2021/06/14 12:57:49;;;;;;;4.73;2.60;;;;;;;;;;5035844;28;20452;-76
2021/06/14 13:00:17;;;;;;;3.00;2.53;;;;;;;;;;5036632;28;20447;-77
2021/06/14 13:02:50;;;;;;;2.97;2.60;;;;;;;;;;5038726;28;20464;-79
2021/06/14 13:05:18;;;;;;;3.80;2.40;;;;;;;;;;5028277;28;20443;-78
2021/06/14 13:07:55;;;;;;;3.00;2.47;;;;;;;;;;5034384;28;21363;-79
2021/06/14 13:10:24;;;;;;;3.37;2.70;;;;;;;;;;5036460;28;20975;-78
2021/06/14 13:12:53;;;;;;;4.33;2.30;;;;;;;;;;5033208;28;20495;-77
2021/06/14 13:15:21;;;;;;;2.80;2.60;;;;;;;;;;5030098;28;20462;-79
2021/06/14 13:17:52;;;;;;;2.33;2.13;;;;;;;;;;5034008;28;20484;-78
2021/06/14 13:20:20;;;;;;;2.50;2.30;;;;;;;;;;5039143;28;20514;-79
2021/06/14 13:22:48;;;;;;;2.47;2.27;;;;;;;;;;5037879;28;20484;-80
2021/06/14 13:25:16;;;;;;;3.60;2.50;;;;;;;;;;5039019;28;20511;-77
2021/06/14 13:27:58;;;;;;;4.00;2.30;;;;;;;;;;5045223;28;20480;-83
2021/06/14 13:30:39;;;;;;;2.70;2.50;;;;;;;;;;5043998;28;20455;-82
2021/06/14 13:33:07;;;;;;;3.90;2.60;;;;;;;;;;5049075;28;20827;-80
2021/06/14 13:35:35;;;;;;;2.90;2.60;;;;;;;;;;5046667;28;20958;-80
2021/06/14 13:38:02;;;;;;;3.00;2.73;;;;;;;;;;5047953;28;20540;-79
2021/06/14 13:40:31;;;;;;;4.20;2.67;;;;;;;;;;5040016;28;20489;-80
2021/06/14 13:43:00;;;;;;;4.30;2.30;;;;;;;;;;5043217;28;20534;-82
2021/06/14 13:45:36;;;;;;;2.73;2.07;;;;;;;;;;5043467;28;20461;-79
2021/06/14 13:48:08;;;;;;;4.10;2.80;;;;;;;;;;5041994;28;21064;-79
2021/06/14 13:50:37;;;;;;;6.27;2.40;;;;;;;;;;5041387;28;20457;-80
2021/06/14 13:53:09;;;;;;;3.63;3.43;;;;;;;;;;5042975;28;20454;-81
2021/06/14 13:55:37;;;;;;;3.80;2.70;;;;;;;;;;5042195;28;20485;-84
2021/06/14 13:58:04;;;;;;;6.20;2.60;;;;;;;;;;5037937;28;20565;-80
2021/06/14 14:00:34;;;;;;;3.80;2.93;;;;;;;;;;5034707;28;20528;-81
2021/06/14 14:03:02;;;;;;;4.30;2.50;;;;;;;;;;5040465;28;20458;-81
2021/06/14 14:05:44;;;;;;;2.83;2.50;;;;;;;;;;5038540;28;20458;-81
2021/06/14 14:08:20;;;;;;;2.50;2.30;;;;;;;;;;5048704;28;20469;-81
2021/06/14 14:10:48;;;;;;;4.40;2.80;;;;;;;;;;5046202;28;20482;-81
2021/06/14 14:13:17;;;;;;;2.97;2.67;;;;;;;;;;5045621;28;20472;-79
2021/06/14 14:21:43;;;;;;;3.07;2.63;;;;;;;;;;5047545;28;20526;-80
2021/06/14 14:27:18;;;;;;;4.78;2.80;;;;;;;;;;5044009;28;20453;-74
2021/06/14 14:29:46;;;;;;;4.97;2.70;;;;;;;;;;5048062;28;20200;-76
2021/06/14 14:32:16;;;;;;;3.87;2.47;;;;;;;;;;5049164;28;20451;-77
2021/06/14 14:34:44;;;;;;;4.87;3.17;;;;;;;;;;5038254;28;20449;-74
2021/06/14 14:37:27;;;;;;;2.67;2.47;;;;;;;;;;5039761;28;20477;-75
2021/06/14 14:40:01;;;;;;;4.23;2.60;;;;;;;;;;5035357;28;20473;-75
2021/06/14 14:42:29;;;;;;;6.30;3.03;;;;;;;;;;5040589;28;20488;-75
2021/06/14 14:44:56;;;;;;;5.63;2.90;;;;;;;;;;5036747;28;20454;-77
2021/06/14 14:47:26;;;;;;;3.50;2.70;;;;;;;;;;5033492;28;20834;-79
2021/06/14 14:49:53;;;;;;;4.80;2.80;;;;;;;;;;5036427;28;20554;-75
2021/06/14 14:52:24;;;;;;;3.30;2.70;;;;;;;;;;5037721;28;20469;-75
2021/06/14 14:54:52;;;;;;;4.17;2.50;;;;;;;;;;5031639;28;20459;-76
2021/06/14 14:57:19;;;;;;;3.60;2.60;;;;;;;;;;5037833;28;20458;-77
2021/06/14 14:59:47;;;;;;;3.07;2.87;;;;;;;;;;5034434;28;20450;-78
2021/06/14 15:02:14;;;;;;;4.83;2.47;;;;;;;;;;5032238;28;20449;-77
2021/06/14 15:04:43;;;;;;;3.73;2.97;;;;;;;;;;5034886;28;20886;-76
2021/06/14 15:07:11;;;;;;;3.23;2.63;;;;;;;;;;5033792;28;20988;-77
2021/06/14 15:09:38;;;;;;;4.47;2.75;;;;;;;;;;5037012;28;20433;-78
2021/06/14 15:12:06;;;;;;;3.13;2.77;;;;;;;;;;5038330;28;20202;-77